Time;durP1;ratioP1;P1;durP2;ratioP2;P2;SDS_P1;SDS_P2;PMS_P1;PMS_P2;Temp;Humidity;BMP_temperature;BMP_pressure;BME280_temperature;BME280_humidity;BME280_pressure;Samples;Min_cycle;Max_cycle;Signal;HPM_P1;HPM_P2
2024/01/21 00:01:54;;;;;;;;;;;-2.50;99.90;;;;;;5056064;28;20011;-66
2024/01/21 00:04:21;;;;;;;;;;;-2.50;99.90;;;;;;5050916;28;20296;-62
2024/01/21 00:06:48;;;;;;;;;;;-2.50;99.90;;;;;;5066826;28;19924;-59
2024/01/21 00:09:15;;;;;;;;;;;-2.50;99.90;;;;;;5053011;28;20027;-62
2024/01/21 00:11:42;;;;;;;;;;;-2.50;99.90;;;;;;5050659;28;20363;-76
2024/01/21 00:14:08;;;;;;;;;;;-2.60;99.90;;;;;;5055549;28;20321;-62
2024/01/21 00:16:35;;;;;;;;;;;-2.60;99.90;;;;;;5059187;28;20396;-60
2024/01/21 00:19:02;;;;;;;;;;;-2.60;99.90;;;;;;5058628;28;20496;-63
2024/01/21 00:21:29;;;;;;;;;;;-2.60;99.90;;;;;;5051585;28;19931;-61
2024/01/21 00:23:55;;;;;;;;;;;-2.60;99.90;;;;;;5054544;28;19978;-66
2024/01/21 00:26:22;;;;;;;;;;;-2.70;99.90;;;;;;5049797;28;19929;-60
2024/01/21 00:28:49;;;;;;;;;;;-2.70;99.90;;;;;;5057429;28;19998;-70
2024/01/21 00:31:16;;;;;;;;;;;-2.80;99.90;;;;;;5056202;28;19931;-66
2024/01/21 00:33:43;;;;;;;;;;;-2.80;99.90;;;;;;5058896;28;19933;-68
2024/01/21 00:36:11;;;;;;;;;;;-2.80;99.90;;;;;;5056013;28;19928;-61
2024/01/21 00:38:38;;;;;;;;;;;-2.80;99.90;;;;;;5054658;28;19982;-68
2024/01/21 00:41:05;;;;;;;;;;;-2.90;99.90;;;;;;5052545;28;20550;-60
2024/01/21 00:43:32;;;;;;;;;;;-2.90;99.90;;;;;;5055436;28;19925;-58
2024/01/21 00:45:59;;;;;;;;;;;-2.90;99.90;;;;;;5055601;28;20006;-72
2024/01/21 00:48:25;;;;;;;;;;;-3.00;99.90;;;;;;5053019;28;19925;-61
2024/01/21 00:50:52;;;;;;;;;;;-3.00;99.90;;;;;;5054625;28;19925;-66
2024/01/21 00:53:19;;;;;;;;;;;-3.00;99.90;;;;;;5064068;28;19970;-65
2024/01/21 00:55:46;;;;;;;;;;;-3.00;99.90;;;;;;5046340;28;19990;-64
2024/01/21 00:58:13;;;;;;;;;;;-2.90;99.90;;;;;;5058153;28;20006;-66
2024/01/21 01:00:39;;;;;;;;;;;-2.90;99.90;;;;;;5061545;28;21413;-65
2024/01/21 01:03:06;;;;;;;;;;;-2.90;99.90;;;;;;5052210;28;19925;-64
2024/01/21 01:05:33;;;;;;;;;;;-2.80;99.90;;;;;;5053316;28;19928;-59
2024/01/21 01:08:00;;;;;;;;;;;-2.80;99.90;;;;;;5055576;28;19928;-62
2024/01/21 01:10:27;;;;;;;;;;;-2.70;99.90;;;;;;5049796;28;19933;-60
2024/01/21 01:12:55;;;;;;;;;;;-2.70;99.90;;;;;;5060502;28;19967;-66
2024/01/21 01:15:22;;;;;;;;;;;-2.70;99.90;;;;;;5053993;28;19963;-73
2024/01/21 01:17:51;;;;;;;;;;;-2.70;99.90;;;;;;5058033;28;19928;-71
2024/01/21 01:20:18;;;;;;;;;;;-2.60;99.90;;;;;;5057827;28;20282;-63
2024/01/21 01:22:45;;;;;;;;;;;-2.60;99.90;;;;;;5054713;28;19982;-61
2024/01/21 01:25:12;;;;;;;;;;;-2.50;99.90;;;;;;5054113;28;19928;-66
2024/01/21 01:27:39;;;;;;;;;;;-2.50;99.90;;;;;;5058883;28;19929;-69
2024/01/21 01:30:06;;;;;;;;;;;-2.40;99.90;;;;;;5051926;28;19963;-65
2024/01/21 01:32:33;;;;;;;;;;;-2.40;99.90;;;;;;5055082;28;19925;-62
2024/01/21 01:35:00;;;;;;;;;;;-2.30;99.90;;;;;;5053391;28;19940;-61
2024/01/21 01:37:27;;;;;;;;;;;-2.30;99.90;;;;;;5055568;28;19955;-62
2024/01/21 01:39:54;;;;;;;;;;;-2.30;99.90;;;;;;5058237;28;20374;-60
2024/01/21 01:42:21;;;;;;;;;;;-2.20;99.90;;;;;;5056405;28;19925;-62
2024/01/21 01:44:48;;;;;;;;;;;-2.20;99.90;;;;;;5058464;28;19933;-66
2024/01/21 01:47:15;;;;;;;;;;;-2.20;99.90;;;;;;5052537;28;20461;-63
2024/01/21 01:49:42;;;;;;;;;;;-2.20;99.90;;;;;;5034967;28;19925;-63
2024/01/21 01:52:14;;;;;;;;;;;-2.20;99.90;;;;;;5055787;28;19924;-62
2024/01/21 01:54:42;;;;;;;;;;;-2.20;99.90;;;;;;5053072;28;19928;-60
2024/01/21 01:57:09;;;;;;;;;;;-2.20;99.90;;;;;;5032030;28;19929;-66
2024/01/21 01:59:37;;;;;;;;;;;-2.20;99.90;;;;;;5047555;28;19924;-59
2024/01/21 02:02:04;;;;;;;;;;;-2.20;99.90;;;;;;5054050;28;19932;-59
2024/01/21 02:04:32;;;;;;;;;;;-2.20;99.90;;;;;;5047079;28;20414;-61
2024/01/21 02:06:59;;;;;;;;;;;-2.20;99.90;;;;;;5053185;28;19932;-59
2024/01/21 02:09:26;;;;;;;;;;;-2.20;99.90;;;;;;5050528;28;20372;-60
2024/01/21 02:11:53;;;;;;;;;;;-2.20;99.90;;;;;;5058537;28;19928;-63
2024/01/21 02:14:20;;;;;;;;;;;-2.10;99.90;;;;;;5051614;28;19964;-60
2024/01/21 02:16:46;;;;;;;;;;;-2.20;99.90;;;;;;5056128;28;19951;-64
2024/01/21 02:19:24;;;;;;;;;;;-2.20;99.90;;;;;;5056956;28;20674;-63
2024/01/21 02:21:51;;;;;;;;;;;-2.20;99.90;;;;;;5055854;28;19929;-75
2024/01/21 02:24:18;;;;;;;;;;;-2.20;99.90;;;;;;5050357;28;19925;-74
2024/01/21 02:26:45;;;;;;;;;;;-2.20;99.90;;;;;;5053658;28;20045;-60
2024/01/21 02:29:12;;;;;;;;;;;-2.10;99.90;;;;;;5058006;28;20002;-61
2024/01/21 02:31:40;;;;;;;;;;;-2.10;99.90;;;;;;5063263;28;19928;-59
2024/01/21 02:34:07;;;;;;;;;;;-2.10;99.90;;;;;;5055533;28;19928;-62
2024/01/21 02:36:34;;;;;;;;;;;-2.10;99.90;;;;;;5050897;28;20532;-61
2024/01/21 02:39:00;;;;;;;;;;;-2.10;99.90;;;;;;5052909;28;19986;-63
2024/01/21 02:41:27;;;;;;;;;;;-2.00;99.90;;;;;;5046960;28;19935;-63
2024/01/21 02:43:54;;;;;;;;;;;-2.00;99.90;;;;;;5048547;28;19929;-60
2024/01/21 02:46:22;;;;;;;;;;;-2.00;99.90;;;;;;5049964;28;19940;-62
2024/01/21 02:48:48;;;;;;;;;;;-2.00;99.90;;;;;;5048701;28;20410;-64
2024/01/21 02:51:15;;;;;;;;;;;-2.00;99.90;;;;;;5060695;28;20468;-61
2024/01/21 02:53:42;;;;;;;;;;;-1.90;99.90;;;;;;5051943;28;19982;-67
2024/01/21 02:56:19;;;;;;;;;;;-1.90;99.90;;;;;;5054840;28;19995;-60
2024/01/21 02:58:46;;;;;;;;;;;-1.80;99.90;;;;;;5049309;28;19925;-59
2024/01/21 03:01:13;;;;;;;;;;;-1.80;99.90;;;;;;5055825;28;19932;-62
2024/01/21 03:03:40;;;;;;;;;;;-1.80;99.90;;;;;;5053109;28;19933;-63
2024/01/21 03:06:07;;;;;;;;;;;-1.70;99.90;;;;;;5051427;28;19981;-63
2024/01/21 03:08:34;;;;;;;;;;;-1.70;99.90;;;;;;5048425;28;19925;-66
2024/01/21 03:11:01;;;;;;;;;;;-1.60;99.90;;;;;;5044916;28;20379;-66
2024/01/21 03:13:28;;;;;;;;;;;-1.60;99.90;;;;;;5054651;28;19933;-61
2024/01/21 03:15:55;;;;;;;;;;;-1.50;99.90;;;;;;5056619;28;19936;-61
2024/01/21 03:18:22;;;;;;;;;;;-1.50;99.90;;;;;;5056343;28;19939;-70
2024/01/21 03:20:49;;;;;;;;;;;-1.40;99.90;;;;;;5060323;28;19925;-61
2024/01/21 03:23:15;;;;;;;;;;;-1.40;99.90;;;;;;5055029;28;19971;-63
2024/01/21 03:25:42;;;;;;;;;;;-1.30;99.90;;;;;;5057513;28;20485;-74
2024/01/21 03:28:09;;;;;;;;;;;-1.30;99.90;;;;;;5052043;28;19928;-61
2024/01/21 03:30:36;;;;;;;;;;;-1.20;99.90;;;;;;5053106;28;19971;-60
2024/01/21 03:33:03;;;;;;;;;;;-1.20;99.90;;;;;;5053558;28;19929;-67
2024/01/21 03:35:30;;;;;;;;;;;-1.20;99.90;;;;;;5059747;28;20460;-63
2024/01/21 03:37:57;;;;;;;;;;;-1.10;99.90;;;;;;5057738;28;20334;-65
2024/01/21 03:40:24;;;;;;;;;;;-1.10;99.90;;;;;;5055091;28;19925;-64
2024/01/21 03:42:50;;;;;;;;;;;-1.00;99.90;;;;;;5063734;28;19940;-66
2024/01/21 03:45:17;;;;;;;;;;;-1.00;99.90;;;;;;5050748;28;19933;-63
2024/01/21 03:47:44;;;;;;;;;;;-0.90;99.90;;;;;;5060227;28;19968;-66
2024/01/21 03:50:11;;;;;;;;;;;-0.90;99.90;;;;;;5054552;28;19925;-63
2024/01/21 03:52:38;;;;;;;;;;;-0.70;99.90;;;;;;5057908;28;20036;-67
2024/01/21 03:55:05;;;;;;;;;;;-0.70;99.90;;;;;;5053165;28;19935;-65
2024/01/21 03:57:32;;;;;;;;;;;-0.60;99.90;;;;;;5051745;28;19925;-59
2024/01/21 03:59:59;;;;;;;;;;;-0.60;99.90;;;;;;5053618;28;19964;-62
2024/01/21 04:02:26;;;;;;;;;;;-0.50;99.90;;;;;;5057384;28;19928;-61
2024/01/21 04:04:53;;;;;;;;;;;-0.40;99.90;;;;;;5052475;28;20282;-63
2024/01/21 04:07:20;;;;;;;;;;;-0.40;99.90;;;;;;5056342;28;19936;-59
2024/01/21 04:09:47;;;;;;;;;;;-0.30;99.90;;;;;;5056472;28;19986;-68
2024/01/21 04:12:14;;;;;;;;;;;-0.20;99.90;;;;;;5059143;28;20370;-62
2024/01/21 04:14:41;;;;;;;;;;;-0.20;99.90;;;;;;5058487;28;19925;-61
2024/01/21 04:17:09;;;;;;;;;;;-0.20;99.90;;;;;;5054028;28;20390;-63
2024/01/21 04:19:35;;;;;;;;;;;-0.20;99.90;;;;;;5055394;28;19925;-58
2024/01/21 04:22:02;;;;;;;;;;;-0.10;99.90;;;;;;5050356;28;19925;-62
2024/01/21 04:24:29;;;;;;;;;;;-0.10;99.90;;;;;;5054496;28;20368;-65
2024/01/21 04:26:56;;;;;;;;;;;-0.10;99.90;;;;;;5061215;28;20015;-58
2024/01/21 04:29:23;;;;;;;;;;;0.00;99.90;;;;;;5052622;28;20015;-65
2024/01/21 04:31:50;;;;;;;;;;;0.00;99.90;;;;;;5055081;28;19971;-62
2024/01/21 04:34:16;;;;;;;;;;;0.00;99.90;;;;;;5057348;28;20031;-62
2024/01/21 04:36:43;;;;;;;;;;;0.10;99.90;;;;;;5056251;28;19932;-65
2024/01/21 04:39:11;;;;;;;;;;;0.10;99.90;;;;;;5053231;28;19932;-68
2024/01/21 04:41:37;;;;;;;;;;;0.10;99.90;;;;;;5051614;28;19928;-62
2024/01/21 04:44:04;;;;;;;;;;;0.20;99.90;;;;;;5050276;28;19933;-63
2024/01/21 04:46:31;;;;;;;;;;;0.20;99.90;;;;;;5051151;28;20047;-62
2024/01/21 04:48:58;;;;;;;;;;;0.30;99.90;;;;;;5055990;28;19982;-62
2024/01/21 04:51:25;;;;;;;;;;;0.30;99.90;;;;;;5056883;28;19929;-61
2024/01/21 04:53:51;;;;;;;;;;;0.40;99.90;;;;;;5057372;28;19998;-67
2024/01/21 04:56:18;;;;;;;;;;;0.40;99.90;;;;;;5059492;28;20363;-60
2024/01/21 04:58:45;;;;;;;;;;;0.50;99.90;;;;;;5051324;28;20378;-62
2024/01/21 05:01:13;;;;;;;;;;;0.50;99.90;;;;;;5057007;28;19925;-59
2024/01/21 05:03:39;;;;;;;;;;;0.60;99.90;;;;;;5055348;28;19978;-64
2024/01/21 05:06:07;;;;;;;;;;;0.60;99.90;;;;;;5049972;28;19928;-60
2024/01/21 05:08:34;;;;;;;;;;;0.60;99.90;;;;;;5053698;28;19925;-65
2024/01/21 05:11:01;;;;;;;;;;;0.70;99.90;;;;;;5050922;28;19925;-59
2024/01/21 05:13:28;;;;;;;;;;;0.70;99.90;;;;;;5052718;28;20006;-62
2024/01/21 05:15:56;;;;;;;;;;;0.80;99.90;;;;;;5051834;28;19925;-67
2024/01/21 05:18:23;;;;;;;;;;;0.80;99.90;;;;;;5060219;28;19931;-60
2024/01/21 05:20:50;;;;;;;;;;;0.90;99.90;;;;;;5055774;28;19960;-63
2024/01/21 05:23:17;;;;;;;;;;;0.90;99.90;;;;;;5055081;28;19971;-63
2024/01/21 05:25:49;;;;;;;;;;;0.90;99.90;;;;;;5055491;28;19932;-64
2024/01/21 05:28:16;;;;;;;;;;;0.90;99.90;;;;;;5058583;28;20224;-70
2024/01/21 05:30:43;;;;;;;;;;;1.00;99.90;;;;;;5050867;28;20345;-61
2024/01/21 05:33:10;;;;;;;;;;;1.10;99.90;;;;;;5050573;28;19925;-67
2024/01/21 05:35:37;;;;;;;;;;;1.00;99.90;;;;;;5052890;28;19956;-59
2024/01/21 05:38:04;;;;;;;;;;;1.10;99.90;;;;;;5052977;28;19946;-62
2024/01/21 05:40:31;;;;;;;;;;;1.10;99.90;;;;;;5056025;28;20022;-59
2024/01/21 05:42:58;;;;;;;;;;;1.20;99.90;;;;;;5056465;28;19971;-61
2024/01/21 05:45:25;;;;;;;;;;;1.20;99.90;;;;;;5056189;28;19942;-61
2024/01/21 05:47:51;;;;;;;;;;;1.20;99.90;;;;;;5054921;28;20015;-65
2024/01/21 05:50:18;;;;;;;;;;;1.30;99.90;;;;;;5061458;28;19951;-63
2024/01/21 05:52:45;;;;;;;;;;;1.30;99.90;;;;;;5052716;28;19929;-60
2024/01/21 05:55:12;;;;;;;;;;;1.40;99.90;;;;;;5049766;28;19925;-63
2024/01/21 05:57:40;;;;;;;;;;;1.30;99.90;;;;;;5051634;28;20015;-66
2024/01/21 06:00:07;;;;;;;;;;;1.40;99.90;;;;;;5053534;28;19933;-61
2024/01/21 06:02:40;;;;;;;;;;;1.40;99.90;;;;;;5054876;28;19929;-61
2024/01/21 06:05:07;;;;;;;;;;;1.50;99.90;;;;;;5049527;28;19925;-60
2024/01/21 06:07:34;;;;;;;;;;;1.50;99.90;;;;;;5053596;28;19931;-64
2024/01/21 06:10:01;;;;;;;;;;;1.50;99.90;;;;;;5055667;28;19970;-70
2024/01/21 06:12:28;;;;;;;;;;;1.50;99.90;;;;;;5057235;28;20509;-61
2024/01/21 06:14:55;;;;;;;;;;;1.50;99.90;;;;;;5046616;28;20354;-62
2024/01/21 06:17:22;;;;;;;;;;;1.50;99.90;;;;;;5047864;28;19940;-60
2024/01/21 06:19:49;;;;;;;;;;;1.50;99.90;;;;;;5048403;28;20274;-70
2024/01/21 06:22:16;;;;;;;;;;;1.60;99.90;;;;;;5061213;28;20010;-68
2024/01/21 06:24:43;;;;;;;;;;;1.60;99.90;;;;;;5058056;28;19932;-63
2024/01/21 06:27:10;;;;;;;;;;;1.60;99.90;;;;;;5051409;28;19928;-59
2024/01/21 06:29:37;;;;;;;;;;;1.60;99.90;;;;;;5050138;28;19928;-69
2024/01/21 06:32:04;;;;;;;;;;;1.60;99.90;;;;;;5055678;28;20355;-62
2024/01/21 06:34:30;;;;;;;;;;;1.60;99.90;;;;;;5056304;28;20416;-64
2024/01/21 06:36:57;;;;;;;;;;;1.70;99.90;;;;;;5057082;28;20003;-62
2024/01/21 06:39:24;;;;;;;;;;;1.70;99.90;;;;;;5055342;28;20014;-64
2024/01/21 06:41:51;;;;;;;;;;;1.80;99.90;;;;;;5057412;28;19931;-62
2024/01/21 06:44:18;;;;;;;;;;;1.70;99.90;;;;;;5051303;28;19929;-61
2024/01/21 06:46:44;;;;;;;;;;;1.70;99.90;;;;;;5062031;28;19953;-62
2024/01/21 06:49:11;;;;;;;;;;;1.80;99.90;;;;;;5059588;28;19960;-62
2024/01/21 06:51:53;;;;;;;;;;;1.80;99.90;;;;;;5053150;28;19932;-59
2024/01/21 06:54:20;;;;;;;;;;;1.80;99.90;;;;;;5050399;28;19929;-59
2024/01/21 06:56:47;;;;;;;;;;;1.80;99.90;;;;;;5057437;28;19932;-61
2024/01/21 06:59:14;;;;;;;;;;;1.80;99.90;;;;;;5057628;28;19997;-59
2024/01/21 07:01:41;;;;;;;;;;;1.80;99.90;;;;;;5043223;28;19925;-64
2024/01/21 07:04:08;;;;;;;;;;;1.90;99.90;;;;;;5033373;28;19929;-59
2024/01/21 07:06:35;;;;;;;;;;;1.90;99.90;;;;;;5031974;28;19933;-78
2024/01/21 07:09:02;;;;;;;;;;;2.00;99.90;;;;;;5036897;28;20432;-63
2024/01/21 07:11:29;;;;;;;;;;;2.00;99.90;;;;;;5018445;28;19925;-63
2024/01/21 07:13:56;;;;;;;;;;;1.90;99.90;;;;;;5040030;28;19971;-60
2024/01/21 07:16:23;;;;;;;;;;;1.90;99.90;;;;;;5031712;28;19929;-60
2024/01/21 07:18:50;;;;;;;;;;;2.00;99.90;;;;;;5039795;28;19955;-66
2024/01/21 07:21:17;;;;;;;;;;;2.00;99.90;;;;;;5042333;28;19928;-63
2024/01/21 07:23:45;;;;;;;;;;;1.90;99.90;;;;;;5039173;28;19935;-61
2024/01/21 07:26:11;;;;;;;;;;;2.00;99.90;;;;;;5035471;28;20342;-59
2024/01/21 07:28:38;;;;;;;;;;;2.00;99.90;;;;;;5035262;28;21160;-64
2024/01/21 07:31:05;;;;;;;;;;;2.10;99.90;;;;;;5039681;28;20629;-60
2024/01/21 07:33:32;;;;;;;;;;;2.10;99.90;;;;;;5040795;28;19935;-60
2024/01/21 07:36:03;;;;;;;;;;;2.10;99.90;;;;;;5034719;28;19925;-60
2024/01/21 07:38:30;;;;;;;;;;;2.10;99.90;;;;;;5029800;28;19925;-60
2024/01/21 07:40:57;;;;;;;;;;;2.00;99.90;;;;;;5023585;28;20375;-66
2024/01/21 07:43:24;;;;;;;;;;;2.00;99.90;;;;;;5035555;28;20421;-60
2024/01/21 07:45:51;;;;;;;;;;;2.10;99.90;;;;;;5034684;28;19925;-64
2024/01/21 07:48:18;;;;;;;;;;;2.00;99.90;;;;;;5039318;28;20290;-63
2024/01/21 07:50:45;;;;;;;;;;;2.00;99.90;;;;;;5038024;28;19929;-63
2024/01/21 07:53:12;;;;;;;;;;;2.00;99.90;;;;;;5035471;28;19925;-60
2024/01/21 07:55:39;;;;;;;;;;;2.00;99.90;;;;;;5040178;28;19925;-68
2024/01/21 07:58:06;;;;;;;;;;;2.10;99.90;;;;;;5037655;28;19925;-63
2024/01/21 08:00:32;;;;;;;;;;;2.00;99.90;;;;;;5042679;28;20336;-60
2024/01/21 08:03:00;;;;;;;;;;;2.10;99.90;;;;;;5053821;28;20441;-66
2024/01/21 08:05:27;;;;;;;;;;;2.10;99.90;;;;;;5057627;28;19925;-63
2024/01/21 08:07:54;;;;;;;;;;;2.10;99.90;;;;;;5061369;28;20471;-62
2024/01/21 08:10:20;;;;;;;;;;;2.10;99.90;;;;;;5053362;28;20070;-63
2024/01/21 08:12:47;;;;;;;;;;;2.10;99.90;;;;;;5057589;28;19940;-62
2024/01/21 08:15:14;;;;;;;;;;;2.10;99.90;;;;;;5050093;28;19925;-77
2024/01/21 08:17:41;;;;;;;;;;;2.10;99.90;;;;;;5058814;28;19925;-60
2024/01/21 08:20:08;;;;;;;;;;;2.10;99.90;;;;;;5057826;28;19928;-60
2024/01/21 08:22:35;;;;;;;;;;;2.10;99.90;;;;;;5055554;28;19925;-62
2024/01/21 08:25:02;;;;;;;;;;;2.10;99.90;;;;;;5054264;28;20047;-63
2024/01/21 08:27:31;;;;;;;;;;;2.20;99.90;;;;;;5052553;28;19931;-66
2024/01/21 08:29:58;;;;;;;;;;;2.20;99.90;;;;;;5059536;28;19973;-72
2024/01/21 08:32:24;;;;;;;;;;;2.20;99.90;;;;;;5052836;28;20426;-61
2024/01/21 08:34:51;;;;;;;;;;;2.20;99.90;;;;;;5050997;28;20332;-66
2024/01/21 08:37:19;;;;;;;;;;;2.20;99.90;;;;;;5053979;28;19998;-60
2024/01/21 08:39:48;;;;;;;;;;;2.10;99.90;;;;;;5052454;28;19928;-69
2024/01/21 08:42:16;;;;;;;;;;;2.20;99.90;;;;;;5052601;28;20554;-62
2024/01/21 08:44:43;;;;;;;;;;;2.20;99.90;;;;;;5055325;28;19932;-66
2024/01/21 08:47:09;;;;;;;;;;;2.20;99.90;;;;;;5056937;28;19928;-64
2024/01/21 08:49:36;;;;;;;;;;;2.20;99.90;;;;;;5049872;28;19929;-66
2024/01/21 08:52:03;;;;;;;;;;;2.20;99.90;;;;;;5050053;28;19925;-60
2024/01/21 08:54:31;;;;;;;;;;;2.20;99.90;;;;;;5052831;28;19924;-61
2024/01/21 08:56:58;;;;;;;;;;;2.20;99.90;;;;;;5052723;28;19929;-64
2024/01/21 08:59:25;;;;;;;;;;;2.20;99.90;;;;;;5053526;28;19929;-65
2024/01/21 09:01:52;;;;;;;;;;;2.20;99.90;;;;;;5046351;28;19972;-63
2024/01/21 09:04:19;;;;;;;;;;;2.20;99.90;;;;;;5036272;28;19925;-61
2024/01/21 09:06:47;;;;;;;;;;;2.20;99.90;;;;;;5033718;28;20374;-63
2024/01/21 09:09:14;;;;;;;;;;;2.10;99.90;;;;;;5042778;28;20559;-63
2024/01/21 09:11:41;;;;;;;;;;;2.10;99.90;;;;;;5039745;28;19932;-62
2024/01/21 09:14:08;;;;;;;;;;;2.20;99.90;;;;;;5040951;28;20556;-64
2024/01/21 09:16:35;;;;;;;;;;;2.10;99.90;;;;;;5042511;28;20011;-61
2024/01/21 09:19:02;;;;;;;;;;;2.10;99.90;;;;;;5041291;28;19948;-60
2024/01/21 09:21:31;;;;;;;;;;;2.20;99.90;;;;;;5039692;28;19933;-59
2024/01/21 09:24:03;;;;;;;;;;;2.20;99.90;;;;;;5039160;28;19947;-63
2024/01/21 09:26:31;;;;;;;;;;;2.20;99.90;;;;;;5041530;28;19928;-66
2024/01/21 09:28:58;;;;;;;;;;;2.20;99.90;;;;;;5034527;28;19933;-61
2024/01/21 09:31:24;;;;;;;;;;;2.20;99.90;;;;;;5040548;28;19925;-61
2024/01/21 09:33:51;;;;;;;;;;;2.20;99.90;;;;;;5038534;28;19980;-69
2024/01/21 09:36:19;;;;;;;;;;;2.20;99.90;;;;;;5041478;28;20036;-64
2024/01/21 09:38:46;;;;;;;;;;;2.20;99.90;;;;;;5040390;28;19929;-61
2024/01/21 09:41:13;;;;;;;;;;;2.20;99.90;;;;;;5044428;28;20394;-65
2024/01/21 09:43:41;;;;;;;;;;;2.30;99.90;;;;;;5041210;28;19925;-60
2024/01/21 09:46:11;;;;;;;;;;;2.30;99.90;;;;;;5045922;28;19929;-62
2024/01/21 09:48:38;;;;;;;;;;;2.30;99.90;;;;;;5042773;28;20451;-65
2024/01/21 09:51:05;;;;;;;;;;;2.20;99.90;;;;;;5039256;28;19931;-66
2024/01/21 09:53:32;;;;;;;;;;;2.30;99.90;;;;;;5034908;28;19932;-71
2024/01/21 09:56:04;;;;;;;;;;;2.30;99.90;;;;;;5039437;28;19955;-62
2024/01/21 09:58:33;;;;;;;;;;;2.20;99.90;;;;;;5033374;28;19952;-65
2024/01/21 10:01:02;;;;;;;;;;;2.30;99.90;;;;;;5036343;28;19925;-67
2024/01/21 10:03:29;;;;;;;;;;;2.30;99.90;;;;;;5034125;28;19925;-64
2024/01/21 10:05:57;;;;;;;;;;;2.40;99.90;;;;;;5037971;28;20287;-68
2024/01/21 10:08:24;;;;;;;;;;;2.40;99.90;;;;;;5034395;28;19932;-62
2024/01/21 10:10:51;;;;;;;;;;;2.40;99.90;;;;;;5038593;28;19978;-69
2024/01/21 10:13:18;;;;;;;;;;;2.50;99.90;;;;;;5038017;28;19956;-69
2024/01/21 10:15:45;;;;;;;;;;;2.50;99.90;;;;;;5030965;28;20354;-67
2024/01/21 10:18:12;;;;;;;;;;;2.40;99.90;;;;;;5028897;28;19929;-61
2024/01/21 10:20:39;;;;;;;;;;;2.40;99.90;;;;;;5032627;28;19935;-65
2024/01/21 10:23:10;;;;;;;;;;;2.40;99.90;;;;;;5032793;28;19960;-64
2024/01/21 10:25:40;;;;;;;;;;;2.40;99.90;;;;;;5031049;28;20376;-62
2024/01/21 10:28:07;;;;;;;;;;;2.40;99.90;;;;;;5034102;28;19925;-65
2024/01/21 10:30:33;;;;;;;;;;;2.40;99.90;;;;;;5035507;28;20421;-63
2024/01/21 10:33:00;;;;;;;;;;;2.30;99.90;;;;;;5037737;28;20016;-62
2024/01/21 10:35:27;;;;;;;;;;;2.40;99.90;;;;;;5036289;28;19964;-65
2024/01/21 10:37:54;;;;;;;;;;;2.30;99.90;;;;;;5041375;28;19929;-60
2024/01/21 10:40:21;;;;;;;;;;;2.40;99.90;;;;;;5026507;28;19940;-63
2024/01/21 10:42:53;;;;;;;;;;;2.30;99.90;;;;;;5029904;28;19937;-66
2024/01/21 10:45:21;;;;;;;;;;;2.30;99.90;;;;;;5028508;28;19998;-63
2024/01/21 10:47:49;;;;;;;;;;;2.40;99.90;;;;;;5037152;28;19933;-63
2024/01/21 10:50:16;;;;;;;;;;;2.30;99.90;;;;;;5035275;28;19929;-63
2024/01/21 10:52:45;;;;;;;;;;;2.40;99.90;;;;;;5033050;28;19947;-60
2024/01/21 10:55:11;;;;;;;;;;;2.40;99.90;;;;;;5027185;28;20445;-60
2024/01/21 10:57:38;;;;;;;;;;;2.40;99.90;;;;;;5025323;28;20299;-63
2024/01/21 11:00:06;;;;;;;;;;;2.40;99.90;;;;;;5034116;28;20038;-62
2024/01/21 11:02:33;;;;;;;;;;;2.40;99.90;;;;;;5055212;28;19951;-62
2024/01/21 11:05:00;;;;;;;;;;;2.40;99.90;;;;;;5053965;28;19925;-63
2024/01/21 11:07:27;;;;;;;;;;;2.30;99.90;;;;;;5053822;28;20340;-60
2024/01/21 11:09:54;;;;;;;;;;;2.30;99.90;;;;;;5054418;28;19929;-67
2024/01/21 11:12:22;;;;;;;;;;;2.30;99.90;;;;;;5051260;28;19987;-63
2024/01/21 11:14:49;;;;;;;;;;;2.30;99.90;;;;;;5050444;28;19975;-64
2024/01/21 11:17:19;;;;;;;;;;;2.30;99.90;;;;;;5056976;28;19925;-63
2024/01/21 11:19:50;;;;;;;;;;;2.30;99.90;;;;;;5053608;28;19928;-66
2024/01/21 11:22:20;;;;;;;;;;;2.30;99.90;;;;;;5049362;28;20325;-60
2024/01/21 11:24:47;;;;;;;;;;;2.30;99.90;;;;;;5048694;28;19940;-65
2024/01/21 11:27:15;;;;;;;;;;;2.30;99.90;;;;;;5051928;28;19975;-61
2024/01/21 11:29:43;;;;;;;;;;;2.30;99.90;;;;;;5057795;28;19990;-63
2024/01/21 11:32:10;;;;;;;;;;;2.30;99.90;;;;;;5058264;28;19924;-64
2024/01/21 11:34:40;;;;;;;;;;;2.40;99.90;;;;;;5049745;28;20537;-60
2024/01/21 11:37:12;;;;;;;;;;;2.40;99.90;;;;;;5053691;28;19971;-70
2024/01/21 11:39:39;;;;;;;;;;;2.40;99.90;;;;;;5050127;28;19929;-65
2024/01/21 11:42:07;;;;;;;;;;;2.40;99.90;;;;;;5054443;28;20363;-61
2024/01/21 11:44:34;;;;;;;;;;;2.40;99.90;;;;;;5053234;28;19987;-65
2024/01/21 11:47:02;;;;;;;;;;;2.40;99.90;;;;;;5054433;28;20534;-60
2024/01/21 11:49:32;;;;;;;;;;;2.30;99.90;;;;;;5053819;28;19970;-60
2024/01/21 11:52:05;;;;;;;;;;;2.40;99.90;;;;;;5042374;28;19939;-65
2024/01/21 11:54:38;;;;;;;;;;;2.30;99.90;;;;;;5048889;28;19951;-62
2024/01/21 11:57:05;;;;;;;;;;;2.40;99.90;;;;;;5055645;28;19959;-66
2024/01/21 11:59:32;;;;;;;;;;;2.40;99.90;;;;;;5056808;28;20375;-61
2024/01/21 12:01:59;;;;;;;;;;;2.40;99.90;;;;;;5043355;28;19935;-69
2024/01/21 12:04:27;;;;;;;;;;;2.40;99.90;;;;;;5052332;28;19925;-66
2024/01/21 12:06:54;;;;;;;;;;;2.40;99.90;;;;;;5051679;28;19928;-66
2024/01/21 12:09:22;;;;;;;;;;;2.40;99.90;;;;;;5050709;28;20463;-60
2024/01/21 12:11:50;;;;;;;;;;;2.40;99.90;;;;;;5053064;28;19940;-64
2024/01/21 12:14:17;;;;;;;;;;;2.40;99.90;;;;;;5060176;28;19928;-65
2024/01/21 12:16:48;;;;;;;;;;;2.40;99.90;;;;;;5058012;28;19925;-64
2024/01/21 12:19:15;;;;;;;;;;;2.40;99.90;;;;;;5052820;28;20025;-64
2024/01/21 12:21:45;;;;;;;;;;;2.50;99.90;;;;;;5058148;28;20019;-65
2024/01/21 12:24:12;;;;;;;;;;;2.50;99.90;;;;;;5054392;28;19935;-69
2024/01/21 12:26:38;;;;;;;;;;;2.50;99.90;;;;;;5059620;28;19933;-66
2024/01/21 12:29:09;;;;;;;;;;;2.50;99.90;;;;;;5053010;28;19924;-72
2024/01/21 12:31:37;;;;;;;;;;;2.60;99.90;;;;;;5053323;28;20488;-70
2024/01/21 12:34:06;;;;;;;;;;;2.60;99.90;;;;;;5052551;28;19925;-60
2024/01/21 12:36:33;;;;;;;;;;;2.60;99.90;;;;;;5047104;28;19925;-62
2024/01/21 12:39:00;;;;;;;;;;;2.60;99.90;;;;;;5055362;28;19932;-64
2024/01/21 12:41:27;;;;;;;;;;;2.60;99.90;;;;;;5057756;28;19931;-65
2024/01/21 12:43:54;;;;;;;;;;;2.60;99.90;;;;;;5058825;28;19936;-69
2024/01/21 12:46:21;;;;;;;;;;;2.50;99.90;;;;;;5060249;28;19956;-65
2024/01/21 12:48:48;;;;;;;;;;;2.60;99.90;;;;;;5054206;28;19951;-59
2024/01/21 12:51:19;;;;;;;;;;;2.50;99.90;;;;;;5062081;28;19928;-68
2024/01/21 12:53:50;;;;;;;;;;;2.50;99.90;;;;;;5054167;28;19982;-63
2024/01/21 12:56:18;;;;;;;;;;;2.50;99.90;;;;;;5053634;28;19924;-63
2024/01/21 12:58:45;;;;;;;;;;;2.50;99.90;;;;;;5062079;28;19999;-63
2024/01/21 13:01:12;;;;;;;;;;;2.50;99.90;;;;;;5048656;28;19924;-59
2024/01/21 13:03:39;;;;;;;;;;;2.50;99.90;;;;;;5058049;28;19929;-64
2024/01/21 13:06:06;;;;;;;;;;;2.50;99.90;;;;;;5058661;28;19925;-62
2024/01/21 13:08:34;;;;;;;;;;;2.50;99.90;;;;;;5054417;28;19928;-66
2024/01/21 13:11:01;;;;;;;;;;;2.40;99.90;;;;;;5051063;28;19932;-63
2024/01/21 13:13:28;;;;;;;;;;;2.40;99.90;;;;;;5054345;28;19936;-63
2024/01/21 13:15:55;;;;;;;;;;;2.40;99.90;;;;;;5045311;28;19929;-63
2024/01/21 13:18:22;;;;;;;;;;;2.40;99.90;;;;;;5050057;28;19940;-61
2024/01/21 13:20:49;;;;;;;;;;;2.40;99.90;;;;;;5054157;28;20055;-64
2024/01/21 13:23:16;;;;;;;;;;;2.40;99.90;;;;;;5052967;28;20360;-59
2024/01/21 13:25:43;;;;;;;;;;;2.40;99.90;;;;;;5057141;28;20021;-61
2024/01/21 13:30:51;;;;;;;;;;;2.30;99.90;;;;;;5055294;28;19931;-59
2024/01/21 13:33:20;;;;;;;;;;;2.30;99.90;;;;;;5057189;28;19925;-68
2024/01/21 13:35:47;;;;;;;;;;;2.30;99.90;;;;;;5060933;28;20785;-61
2024/01/21 13:38:15;;;;;;;;;;;2.30;99.90;;;;;;5059081;28;19933;-59
2024/01/21 13:40:42;;;;;;;;;;;2.30;99.90;;;;;;5058031;28;19967;-60
2024/01/21 13:43:10;;;;;;;;;;;2.30;99.90;;;;;;5055063;28;19932;-59
2024/01/21 13:45:37;;;;;;;;;;;2.30;99.90;;;;;;5056681;28;19932;-61
2024/01/21 13:48:04;;;;;;;;;;;2.30;99.90;;;;;;5056343;28;19929;-66
2024/01/21 13:50:31;;;;;;;;;;;2.30;99.90;;;;;;5059242;28;19932;-63
2024/01/21 13:53:02;;;;;;;;;;;2.30;99.90;;;;;;5051497;28;20015;-65
2024/01/21 13:55:29;;;;;;;;;;;2.30;99.90;;;;;;5052127;28;19970;-59
2024/01/21 13:57:56;;;;;;;;;;;2.30;99.90;;;;;;5062126;28;19928;-60
2024/01/21 14:00:24;;;;;;;;;;;2.30;99.90;;;;;;5049431;28;20450;-61
2024/01/21 14:02:54;;;;;;;;;;;2.30;99.90;;;;;;5055602;28;19925;-61
2024/01/21 14:05:24;;;;;;;;;;;2.30;99.90;;;;;;5057566;28;20012;-62
2024/01/21 14:07:51;;;;;;;;;;;2.30;99.90;;;;;;5053390;28;19947;-63
2024/01/21 14:10:19;;;;;;;;;;;2.30;99.90;;;;;;5056398;28;20297;-60
2024/01/21 14:12:46;;;;;;;;;;;2.30;99.90;;;;;;5049345;28;20054;-61
2024/01/21 14:15:13;;;;;;;;;;;2.30;99.90;;;;;;5060742;28;20019;-64
2024/01/21 14:17:40;;;;;;;;;;;2.30;99.90;;;;;;5055140;28;19932;-60
2024/01/21 14:20:10;;;;;;;;;;;2.30;99.90;;;;;;5053730;28;19924;-59
2024/01/21 14:22:38;;;;;;;;;;;2.30;99.90;;;;;;5052716;28;20571;-60
2024/01/21 14:25:13;;;;;;;;;;;2.30;99.90;;;;;;5056583;28;20271;-69
2024/01/21 14:27:40;;;;;;;;;;;2.30;99.90;;;;;;5057484;28;20687;-62
2024/01/21 14:30:08;;;;;;;;;;;2.40;99.90;;;;;;5065028;28;20019;-61